CYRJ

Roberval Airport

ICAO Code CYRJ
IATA Code YRJ
Name Roberval Airport
Location Roberval, Quebec, CA
Elevation 586 Feet / 178.6 Meters
Latitude 48.52000000
Longitude -72.26583333
METAR CYRJ 040800Z 27007KT 25SM FEW050 08/06 A3000 RMK SC1 SLP165
Extra information Display NOTAMS
Display Charts
Runway Length Width Surface Elevation
16 5000 ft 150 ft ASP 586 ft
34 5000 ft 150 ft ASP 560 ft